KMKG

Muskegon County Airport

Airport
ICAO code
KMKG
Summary
ICAO Region
NAM
ICAO Territory
Location

Muskegon, Michigan,

Coordinates
43° 10' 10" N , 86° 14' 17" W
KCC
Airport CFIT
Altimeter Temperature Error Correction
Airport WX
Lake Effect Snow
Metar
Observation
KMKG 032055Z 29006KT 10SM SCT250 17/09 A3034 RMK AO2 SLP277 T01670089 56017 $
Station
Muskegon, Muskegon County Airport
Date/Time
2022-10-03 20:55:00
Wind direction
290°
Wind speed
06 kts
Lowest cloud amount
scattered clouds
Temperature
16.7°C
Dew point
8.9°C
Humidity
60%
Weather condition
n/a

Description

Muskegon County Airport is a public use airport located 7 km south of the central business district of Muskegon, in Muskegon County, Michigan.

Climatology

Humid Continental climate (Köppen climate classification Dfb) - Variable weather patterns and a large seasonal temperature variance. Summers are often warm and humid with frequent thunderstorms and winters can be very cold with frequent snowfall and persistent snow cover.

Runways

Designator Length Width Surface Rops
14/32 1524 46 ASP Yes/Yes
6/24 1982 46 ASP Yes/Yes

Airport map

Aerial View

SKYbrary Partners:

Safety knowledge contributed by: